Aérodrome :
LOGIN :

S'inscrire | Disclaimer

   EN    FR    IT 

 










Légende :    VFR   VFR Marginal   IFR   IFR Intensif   IFR Très Intensif
Visi : 
Plafond : 
>= 8 km
>= 3000ft
5 à 8 km
1000 à 3000 ft
1500m à 5 km
500 à 1000 ft
800 à 1500m
200 à 500 ft
< 800m
< 200 ft
Symboles :   Orages  Brouillard  Fortes neiges  Fortes précipitations  Vent > 20 kt
SIGMETs :   Divers  Orages  Givrage  Turbulence  Onde Orograph.  Cendres Volcan.






- Altitude de l'aérodrome : 102 ft
- Code IATA : EXT


EGTE - Exeter

DERNIER METAR :
  • 260850Z 17012KT 9000 -RA SCT015 BKN036 08/08 Q1009

METARs EXPIRÉS :
  • 260820Z 16010KT 9000 BKN014 08/07 Q1009
  • 260750Z 18008KT 9999 -SHRA SCT012 SCT042 08/08 Q1009
  • 260720Z 17008KT 9999 9000SW -SHRA FEW020 BKN038 09/08 Q1009

TAF TAF EGTE
Valide du 26 à 09h jusqu'au 26 à 18h UTC


260801Z 2609/2618 18010KT 9999 SCT018
TEMPO 2609/2614 6000 RA BKN012
PROB30
TEMPO 2610/2613 20015G25KT 3000 +RA BKN006
BECMG 2612/2615 27007KT



MET'MAP, la Météo Aéronautique d'un coup d'oeil ! - Copyright ORBIFLY Décembre 2007 - Disclaimer

ORBIFLY MET'MAP TEAM :

Programmation & Développement : Alexandra Zaïnal
Sur une idée originale de : Baudouin d'Aumeries
Assistance à la programmation : Marc-Olivier Méhu
Soutien technique & logistique : Manuel Goepfert

Contact : metmap@orbifly.com




SOURCES & CREDITS :

   NOAA